Time;durP1;ratioP1;P1;durP2;ratioP2;P2;SDS_P1;SDS_P2;PMS_P1;PMS_P2;Temp;Humidity;BMP_temperature;BMP_pressure;BME280_temperature;BME280_humidity;BME280_pressure;Samples;Min_cycle;Max_cycle;Signal;HPM_P1;HPM_P2
2023/09/03 00:00:20;;;;;;;;;;;;;;;29.28;40.90;94855.84;5053804;28;7239;-64
2023/09/03 00:02:46;;;;;;;;;;;;;;;29.28;41.83;94839.97;5064564;28;9155;-64
2023/09/03 00:05:16;;;;;;;;;;;;;;;29.27;41.57;94852.34;5037512;28;7212;-64
2023/09/03 00:07:49;;;;;;;;;;;;;;;29.28;41.60;94844.75;5067203;28;9064;-64
2023/09/03 00:10:15;;;;;;;;;;;;;;;29.29;41.22;94849.78;5049329;28;6996;-64
2023/09/03 00:12:59;;;;;;;;;;;;;;;29.28;41.74;94839.22;5053741;28;7208;-64
2023/09/03 00:15:47;;;;;;;;;;;;;;;29.26;41.88;94839.00;5046690;28;8008;-64
2023/09/03 00:18:14;;;;;;;;;;;;;;;29.24;40.93;94836.75;5048291;28;7002;-64
2023/09/03 00:20:54;;;;;;;;;;;;;;;29.25;40.75;94843.06;5042113;28;7271;-64
2023/09/03 00:23:22;;;;;;;;;;;;;;;29.24;40.81;94838.78;5053786;28;7288;-64
2023/09/03 00:26:02;;;;;;;;;;;;;;;29.24;41.61;94847.09;5054431;28;9078;-64
2023/09/03 00:28:41;;;;;;;;;;;;;;;29.22;41.69;94852.41;5037347;28;7007;-64
2023/09/03 00:31:25;;;;;;;;;;;;;;;29.21;41.59;94857.19;5052793;28;7190;-63
2023/09/03 00:33:58;;;;;;;;;;;;;;;29.22;40.83;94855.94;5063311;28;7494;-64
2023/09/03 00:36:52;;;;;;;;;;;;;;;29.23;40.61;94859.44;5046930;28;9079;-64
2023/09/03 00:39:18;;;;;;;;;;;;;;;29.22;41.25;94860.72;5047608;28;9384;-64
2023/09/03 00:41:59;;;;;;;;;;;;;;;29.22;41.41;94869.03;5061721;28;9469;-64
2023/09/03 00:44:43;;;;;;;;;;;;;;;29.20;41.80;94874.34;5025940;28;9113;-64
2023/09/03 00:47:18;;;;;;;;;;;;;;;29.21;40.87;94870.31;5053137;28;8081;-64
2023/09/03 00:49:45;;;;;;;;;;;;;;;29.18;40.76;94869.34;5047883;28;7198;-64
2023/09/03 00:52:13;;;;;;;;;;;;;;;29.19;40.93;94867.31;5057685;28;7617;-63
2023/09/03 00:54:44;;;;;;;;;;;;;;;29.17;41.57;94865.03;5043676;28;7075;-64
2023/09/03 00:57:10;;;;;;;;;;;;;;;29.20;40.83;94860.50;5058527;28;7226;-63
2023/09/03 00:59:39;;;;;;;;;;;;;;;29.18;40.97;94872.09;5042457;28;9479;-64
2023/09/03 01:02:17;;;;;;;;;;;;;;;29.16;41.38;94874.66;5054493;28;7227;-64
2023/09/03 01:04:44;;;;;;;;;;;;;;;29.18;41.22;94876.88;5042696;28;7245;-66
2023/09/03 01:07:19;;;;;;;;;;;;;;;29.16;40.77;94879.41;5054705;28;7052;-66
2023/09/03 01:09:54;;;;;;;;;;;;;;;29.15;40.81;94881.41;5054463;28;7007;-66
2023/09/03 01:12:42;;;;;;;;;;;;;;;29.16;40.90;94887.72;5058191;28;7223;-66
2023/09/03 01:15:24;;;;;;;;;;;;;;;29.16;41.18;94898.78;5047727;28;7020;-66
2023/09/03 01:18:15;;;;;;;;;;;;;;;29.15;41.48;94888.97;5049560;28;7067;-66
2023/09/03 01:21:22;;;;;;;;;;;;;;;29.14;40.61;94885.47;5042600;28;8800;-66
2023/09/03 01:24:32;;;;;;;;;;;;;;;29.13;40.65;94881.19;5010638;28;7237;-66
2023/09/03 01:27:00;;;;;;;;;;;;;;;29.12;41.46;94876.19;4994465;28;7230;-66
2023/09/03 01:29:28;;;;;;;;;;;;;;;29.08;41.52;94873.69;4984918;28;9450;-66
2023/09/03 01:32:05;;;;;;;;;;;;;;;29.05;41.03;94877.53;5010942;28;7446;-66
2023/09/03 01:34:41;;;;;;;;;;;;;;;29.02;41.70;94876.53;4994518;28;7220;-66
2023/09/03 01:37:09;;;;;;;;;;;;;;;29.00;40.99;94876.31;4998995;28;7096;-66
2023/09/03 01:39:37;;;;;;;;;;;;;;;28.99;40.94;94871.31;5002740;28;7430;-66
2023/09/03 01:42:07;;;;;;;;;;;;;;;28.97;41.73;94874.59;5004178;28;7208;-66
2023/09/03 01:44:34;;;;;;;;;;;;;;;28.98;41.64;94880.88;4975431;28;7063;-66
2023/09/03 01:47:55;;;;;;;;;;;;;;;28.96;40.79;94884.19;4995343;28;6860;-66
2023/09/03 01:51:18;;;;;;;;;;;;;;;28.96;41.74;94873.09;4909829;29;7201;-66
2023/09/03 01:57:51;;;;;;;;;;;;;;;28.95;40.71;94873.59;4902768;29;7194;-66
2023/09/03 02:00:18;;;;;;;;;;;;;;;28.93;40.97;94876.91;4936495;29;7558;-66
2023/09/03 02:03:13;;;;;;;;;;;;;;;28.92;40.96;94883.72;4935719;29;8697;-66
2023/09/03 02:06:10;;;;;;;;;;;;;;;28.92;41.99;94883.72;4952384;28;7267;-66
2023/09/03 02:08:38;;;;;;;;;;;;;;;28.92;41.16;94880.19;4891023;29;7404;-66
2023/09/03 02:11:05;;;;;;;;;;;;;;;28.91;41.32;94881.47;4902730;29;7273;-66
2023/09/03 02:13:31;;;;;;;;;;;;;;;28.90;40.93;94875.19;4887429;29;7550;-66
2023/09/03 02:15:58;;;;;;;;;;;;;;;28.90;41.61;94877.97;4903152;29;7272;-55
2023/09/03 02:18:39;;;;;;;;;;;;;;;28.90;41.47;94879.97;4889377;29;8791;-56
2023/09/03 02:21:44;;;;;;;;;;;;;;;28.90;40.77;94874.44;4891862;29;9075;-56
2023/09/03 02:24:19;;;;;;;;;;;;;;;28.88;41.68;94883.25;4898038;29;9087;-55
2023/09/03 02:26:46;;;;;;;;;;;;;;;28.86;41.59;94885.78;4901144;29;8727;-56
2023/09/03 02:29:14;;;;;;;;;;;;;;;28.88;41.53;94891.56;4916382;28;7059;-55
2023/09/03 02:31:40;;;;;;;;;;;;;;;28.87;41.30;94894.84;4940308;28;7066;-56
2023/09/03 02:34:07;;;;;;;;;;;;;;;28.87;41.08;94900.38;4935591;29;8755;-56
2023/09/03 02:36:34;;;;;;;;;;;;;;;28.85;41.13;94906.44;4946618;28;7253;-56
2023/09/03 02:39:04;;;;;;;;;;;;;;;28.85;40.93;94914.75;4938238;29;7108;-55
2023/09/03 02:41:52;;;;;;;;;;;;;;;28.86;41.29;94912.75;4947950;29;7616;-55
2023/09/03 02:44:32;;;;;;;;;;;;;;;28.83;41.70;94902.69;4966710;28;7250;-56
2023/09/03 02:47:01;;;;;;;;;;;;;;;28.83;40.97;94909.00;5044433;28;7249;-55
2023/09/03 02:49:41;;;;;;;;;;;;;;;28.85;41.63;94906.44;5054908;28;7250;-55
2023/09/03 02:52:08;;;;;;;;;;;;;;;28.84;41.16;94904.22;5035221;28;9362;-55
2023/09/03 02:54:33;;;;;;;;;;;;;;;28.82;41.65;94899.19;5038692;28;7422;-55
2023/09/03 02:57:03;;;;;;;;;;;;;;;28.83;41.17;94902.69;5044884;28;7218;-56
2023/09/03 02:59:31;;;;;;;;;;;;;;;28.81;41.68;94910.78;5054217;28;8184;-56
2023/09/03 03:02:13;;;;;;;;;;;;;;;28.81;41.18;94906.00;5050515;28;9043;-55
2023/09/03 03:04:39;;;;;;;;;;;;;;;28.81;41.42;94906.00;5054545;28;7570;-55
2023/09/03 03:07:40;;;;;;;;;;;;;;;28.80;41.24;94907.25;5064092;28;6992;-56
2023/09/03 03:10:51;;;;;;;;;;;;;;;28.80;41.62;94910.03;5023194;28;8839;-56
2023/09/03 03:13:18;;;;;;;;;;;;;;;28.80;40.83;94912.03;5011604;28;7163;-55
2023/09/03 03:16:21;;;;;;;;;;;;;;;28.78;41.53;94918.09;5024158;28;7328;-55
2023/09/03 03:18:48;;;;;;;;;;;;;;;28.76;40.98;94917.88;5026665;28;7314;-55
2023/09/03 03:21:58;;;;;;;;;;;;;;;28.79;41.15;94919.63;5017737;28;9037;-55
2023/09/03 03:24:34;;;;;;;;;;;;;;;28.77;40.63;94913.84;5026978;28;8748;-61
2023/09/03 03:27:00;;;;;;;;;;;;;;;28.76;40.95;94922.66;5012421;28;6968;-62
2023/09/03 03:29:28;;;;;;;;;;;;;;;28.73;41.34;94913.38;5028424;28;7267;-62
2023/09/03 03:31:56;;;;;;;;;;;;;;;28.77;41.93;94921.41;5033344;28;9322;-62
2023/09/03 03:34:56;;;;;;;;;;;;;;;28.74;40.73;94916.88;5014963;28;9635;-62
2023/09/03 03:37:22;;;;;;;;;;;;;;;28.76;41.04;94914.34;4934587;29;9200;-62
2023/09/03 03:40:33;;;;;;;;;;;;;;;28.74;41.53;94923.19;4916947;29;6880;-62
2023/09/03 03:43:12;;;;;;;;;;;;;;;28.76;41.10;94937.25;4860018;29;7264;-62
2023/09/03 03:45:38;;;;;;;;;;;;;;;28.75;41.48;94935.75;4847537;29;7259;-62
2023/09/03 03:48:06;;;;;;;;;;;;;;;28.75;40.81;94935.00;4851987;29;9086;-62
2023/09/03 03:50:33;;;;;;;;;;;;;;;28.74;41.02;94941.81;4877032;29;7716;-62
2023/09/03 03:53:00;;;;;;;;;;;;;;;28.72;41.18;94934.03;4870657;29;9032;-61
2023/09/03 03:55:38;;;;;;;;;;;;;;;28.73;40.71;94929.97;4861805;29;8573;-62
2023/09/03 03:58:05;;;;;;;;;;;;;;;28.72;41.51;94931.25;4863475;29;9170;-62
2023/09/03 04:00:31;;;;;;;;;;;;;;;28.72;41.29;94925.72;4878196;29;7232;-62
2023/09/03 04:02:59;;;;;;;;;;;;;;;28.70;41.33;94922.72;4875548;29;9423;-61
2023/09/03 04:05:44;;;;;;;;;;;;;;;28.71;40.59;94924.22;4878953;29;9098;-62
2023/09/03 04:08:10;;;;;;;;;;;;;;;28.71;41.19;94929.75;4853068;29;7373;-62
2023/09/03 04:11:05;;;;;;;;;;;;;;;28.71;41.56;94940.81;4878774;29;7071;-62
2023/09/03 04:13:34;;;;;;;;;;;;;;;28.70;40.68;94949.66;4927269;28;7666;-62
2023/09/03 04:16:11;;;;;;;;;;;;;;;28.70;41.49;94946.88;4966973;28;7230;-62
2023/09/03 04:18:45;;;;;;;;;;;;;;;28.67;41.17;94951.44;4971595;28;9175;-62
2023/09/03 04:21:25;;;;;;;;;;;;;;;28.67;41.59;94943.13;5035263;28;7290;-62
2023/09/03 04:23:57;;;;;;;;;;;;;;;28.68;41.41;94943.88;5057962;28;7269;-62
2023/09/03 04:26:23;;;;;;;;;;;;;;;28.67;41.20;94943.13;5055046;28;9670;-61
2023/09/03 04:29:10;;;;;;;;;;;;;;;28.68;40.96;94944.63;5051078;28;7682;-62
2023/09/03 04:31:40;;;;;;;;;;;;;;;28.66;41.21;94938.13;5040912;28;8300;-62
2023/09/03 04:34:21;;;;;;;;;;;;;;;28.67;40.90;94945.91;5053495;28;8794;-57
2023/09/03 04:36:47;;;;;;;;;;;;;;;28.66;41.07;94943.66;5059302;28;9139;-57
2023/09/03 04:39:25;;;;;;;;;;;;;;;28.67;41.39;94945.91;5044128;28;9476;-57
2023/09/03 04:41:58;;;;;;;;;;;;;;;28.66;41.52;94955.47;5040467;28;7220;-57
2023/09/03 04:44:25;;;;;;;;;;;;;;;28.66;40.95;94954.72;5057701;28;6983;-57
2023/09/03 04:46:52;;;;;;;;;;;;;;;28.62;41.08;94946.72;5041199;28;7106;-56
2023/09/03 04:49:18;;;;;;;;;;;;;;;28.65;41.30;94953.22;5052031;28;9253;-57
2023/09/03 04:51:44;;;;;;;;;;;;;;;28.63;41.37;94956.50;5020798;28;7223;-57
2023/09/03 04:54:37;;;;;;;;;;;;;;;28.65;40.93;94961.53;5057401;28;7237;-56
2023/09/03 04:57:21;;;;;;;;;;;;;;;28.62;41.12;94957.03;5031699;28;7481;-57
2023/09/03 04:59:57;;;;;;;;;;;;;;;28.63;41.04;94967.59;5031279;28;7407;-57
2023/09/03 05:02:59;;;;;;;;;;;;;;;28.65;41.67;94962.28;5047502;28;7258;-58
2023/09/03 05:05:25;;;;;;;;;;;;;;;28.64;41.15;94958.03;4967791;28;7428;-56
2023/09/03 05:08:24;;;;;;;;;;;;;;;28.62;41.65;94968.88;4961671;28;8790;-57
2023/09/03 05:10:50;;;;;;;;;;;;;;;28.61;40.79;94961.81;4918494;29;9057;-57
2023/09/03 05:13:17;;;;;;;;;;;;;;;28.61;41.00;94970.13;4925975;28;7221;-58
2023/09/03 05:15:54;;;;;;;;;;;;;;;28.60;41.49;94971.38;4937446;28;7324;-57
2023/09/03 05:18:21;;;;;;;;;;;;;;;28.61;41.51;94981.19;4933833;28;8938;-57
2023/09/03 05:20:47;;;;;;;;;;;;;;;28.61;41.26;94986.72;4936567;28;8836;-57
2023/09/03 05:23:51;;;;;;;;;;;;;;;28.62;41.07;94998.56;4934080;29;8413;-57
2023/09/03 05:26:27;;;;;;;;;;;;;;;28.61;41.06;95013.66;4902775;29;7235;-57
2023/09/03 05:29:02;;;;;;;;;;;;;;;28.60;40.65;95017.69;4900433;29;7160;-57
2023/09/03 05:31:32;;;;;;;;;;;;;;;28.57;41.11;95007.63;4900617;29;7195;-57
2023/09/03 05:34:23;;;;;;;;;;;;;;;28.59;40.80;95011.41;4900411;29;7263;-57
2023/09/03 05:36:58;;;;;;;;;;;;;;;28.57;41.17;95008.41;4895995;29;7034;-57
2023/09/03 05:39:51;;;;;;;;;;;;;;;28.60;40.75;95014.94;4894369;29;9874;-56
2023/09/03 05:42:56;;;;;;;;;;;;;;;28.58;41.26;95023.72;4949022;28;7083;-57
2023/09/03 05:45:31;;;;;;;;;;;;;;;28.57;41.54;95033.31;4943536;28;7270;-57
2023/09/03 05:48:11;;;;;;;;;;;;;;;28.57;40.95;95030.53;4990253;28;8478;-57
2023/09/03 05:50:37;;;;;;;;;;;;;;;28.57;41.46;95030.53;4988110;28;7267;-57
2023/09/03 05:53:03;;;;;;;;;;;;;;;28.55;41.13;95024.75;4991065;28;6973;-57
2023/09/03 05:55:47;;;;;;;;;;;;;;;28.58;41.04;95026.50;4991466;28;9096;-57
2023/09/03 05:58:19;;;;;;;;;;;;;;;28.55;41.15;95021.22;4987738;28;7195;-57
2023/09/03 06:00:47;;;;;;;;;;;;;;;28.58;41.02;95034.78;5029025;28;7189;-57
2023/09/03 06:03:20;;;;;;;;;;;;;;;28.58;41.51;95039.59;5048538;28;7060;-57
2023/09/03 06:05:46;;;;;;;;;;;;;;;28.56;40.93;95031.75;5040825;28;9008;-57
2023/09/03 06:08:14;;;;;;;;;;;;;;;28.57;40.65;95019.47;5040647;28;7310;-57
2023/09/03 06:11:02;;;;;;;;;;;;;;;28.56;40.95;95029.00;5065068;28;8700;-57
2023/09/03 06:13:35;;;;;;;;;;;;;;;28.57;40.77;95029.75;5044392;28;7189;-57
2023/09/03 06:16:03;;;;;;;;;;;;;;;28.53;41.08;95030.06;5046522;28;7243;-58
2023/09/03 06:18:32;;;;;;;;;;;;;;;28.57;40.73;95032.53;5038897;28;7344;-57
2023/09/03 06:20:58;;;;;;;;;;;;;;;28.57;40.84;95041.63;5051584;28;7209;-57
2023/09/03 06:23:26;;;;;;;;;;;;;;;28.56;41.39;95034.53;5051263;28;7847;-57
2023/09/03 06:26:04;;;;;;;;;;;;;;;28.56;41.04;95042.84;5037140;28;9406;-57
2023/09/03 06:28:42;;;;;;;;;;;;;;;28.55;41.05;95046.88;5035122;28;7020;-57
2023/09/03 06:31:11;;;;;;;;;;;;;;;28.56;40.98;95050.41;5059977;28;7351;-57
2023/09/03 06:33:43;;;;;;;;;;;;;;;28.56;40.99;95056.69;5043614;28;7179;-57
2023/09/03 06:36:16;;;;;;;;;;;;;;;28.55;41.23;95057.19;5039794;28;7238;-57
2023/09/03 06:38:52;;;;;;;;;;;;;;;28.55;40.71;95060.72;5042926;28;9519;-57
2023/09/03 06:41:34;;;;;;;;;;;;;;;28.55;40.69;95066.25;5044477;28;8789;-57
2023/09/03 06:44:30;;;;;;;;;;;;;;;28.54;41.63;95073.06;5047131;28;9098;-57
2023/09/03 06:47:14;;;;;;;;;;;;;;;28.53;41.30;95079.88;4978685;28;6996;-57
2023/09/03 06:50:01;;;;;;;;;;;;;;;28.55;41.46;95082.09;4988580;28;8764;-57
2023/09/03 06:52:30;;;;;;;;;;;;;;;28.55;41.07;95079.34;4990403;28;7056;-57
2023/09/03 06:54:56;;;;;;;;;;;;;;;28.54;41.54;95081.34;4981703;28;8775;-60
2023/09/03 06:57:25;;;;;;;;;;;;;;;28.54;41.42;95091.66;5002984;28;6895;-60
2023/09/03 06:59:51;;;;;;;;;;;;;;;28.53;41.75;95092.94;4990285;28;7289;-61
2023/09/03 07:02:20;;;;;;;;;;;;;;;28.54;41.23;95097.19;5006378;28;6978;-61
2023/09/03 07:04:48;;;;;;;;;;;;;;;28.55;40.81;95107.03;4991081;28;9026;-60
2023/09/03 07:07:35;;;;;;;;;;;;;;;28.54;41.29;95113.81;5012124;28;7626;-60
2023/09/03 07:10:12;;;;;;;;;;;;;;;28.54;40.52;95111.03;4999611;28;8719;-61
2023/09/03 07:12:39;;;;;;;;;;;;;;;28.54;40.97;95111.03;5007388;28;7230;-61
2023/09/03 07:15:06;;;;;;;;;;;;;;;28.54;41.42;95109.03;4992688;28;7268;-61
2023/09/03 07:17:35;;;;;;;;;;;;;;;28.55;41.82;95112.56;5006967;28;9225;-61
2023/09/03 07:20:05;;;;;;;;;;;;;;;28.55;41.06;95113.31;4987556;28;7173;-61
2023/09/03 07:22:30;;;;;;;;;;;;;;;28.57;41.54;95124.66;5009590;28;9499;-61
2023/09/03 07:24:58;;;;;;;;;;;;;;;28.59;41.09;95122.13;5040903;28;7227;-61
2023/09/03 07:27:26;;;;;;;;;;;;;;;28.57;40.91;95113.56;5046424;28;7133;-61
2023/09/03 07:30:02;;;;;;;;;;;;;;;28.60;41.13;95122.88;5059709;28;9381;-61
2023/09/03 07:32:28;;;;;;;;;;;;;;;28.57;41.40;95132.94;5054461;28;7358;-61
2023/09/03 07:34:54;;;;;;;;;;;;;;;28.56;41.79;95136.22;5043401;28;9085;-62
2023/09/03 07:37:20;;;;;;;;;;;;;;;28.57;40.82;95137.69;5044874;28;7256;-61
2023/09/03 07:39:46;;;;;;;;;;;;;;;28.56;41.31;95148.00;5039355;28;8582;-61
2023/09/03 07:42:12;;;;;;;;;;;;;;;28.55;41.25;95149.28;5048519;28;8750;-60
2023/09/03 07:44:46;;;;;;;;;;;;;;;28.57;41.54;95157.88;5050790;28;8987;-61
2023/09/03 07:47:43;;;;;;;;;;;;;;;28.57;41.51;95160.63;5045397;28;9099;-61
2023/09/03 07:50:19;;;;;;;;;;;;;;;28.58;41.13;95162.13;5047618;28;7364;-60
2023/09/03 07:52:51;;;;;;;;;;;;;;;28.58;41.84;95164.88;5043946;28;8223;-61
2023/09/03 07:55:24;;;;;;;;;;;;;;;28.61;41.61;95166.66;5050711;28;7237;-62
2023/09/03 07:58:07;;;;;;;;;;;;;;;28.62;41.58;95164.63;5069219;28;6871;-62
2023/09/03 08:00:44;;;;;;;;;;;;;;;28.61;41.00;95158.34;5039035;28;7068;-61
2023/09/03 08:03:33;;;;;;;;;;;;;;;28.59;41.29;95157.34;5040223;28;7255;-61
2023/09/03 08:06:23;;;;;;;;;;;;;;;28.58;41.56;95139.25;5055154;28;6981;-56
2023/09/03 08:08:56;;;;;;;;;;;;;;;28.58;41.63;95142.75;5043208;28;9044;-56
2023/09/03 08:11:46;;;;;;;;;;;;;;;28.62;41.66;95148.78;5049027;28;7144;-55
2023/09/03 08:14:14;;;;;;;;;;;;;;;28.77;41.45;95145.66;5059828;28;7208;-56
2023/09/03 08:16:42;;;;;;;;;;;;;;;28.84;41.42;95147.88;5053571;28;7754;-56
2023/09/03 08:19:48;;;;;;;;;;;;;;;28.88;41.18;95149.06;5047163;28;7070;-56
2023/09/03 08:22:16;;;;;;;;;;;;;;;28.88;41.21;95151.84;4971464;28;8295;-56
2023/09/03 08:24:42;;;;;;;;;;;;;;;28.84;40.88;95140.31;4984086;28;7498;-55
2023/09/03 08:27:10;;;;;;;;;;;;;;;28.80;41.55;95139.06;4984982;28;7222;-55
2023/09/03 08:29:37;;;;;;;;;;;;;;;28.79;41.14;95141.13;4977050;28;7035;-55
2023/09/03 08:32:04;;;;;;;;;;;;;;;28.81;41.72;95135.81;4991285;28;7236;-55
2023/09/03 08:34:33;;;;;;;;;;;;;;;28.78;41.68;95134.06;4978837;28;6958;-55
2023/09/03 08:36:59;;;;;;;;;;;;;;;28.77;40.83;95138.09;4976761;28;8864;-56
2023/09/03 08:39:26;;;;;;;;;;;;;;;28.77;42.04;95138.09;4988052;28;6966;-56
2023/09/03 08:41:52;;;;;;;;;;;;;;;28.77;41.38;95143.66;4985736;28;8655;-55
2023/09/03 08:44:33;;;;;;;;;;;;;;;28.77;41.11;95143.66;4975792;28;8735;-56
2023/09/03 08:47:03;;;;;;;;;;;;;;;28.73;41.48;95148.69;4990747;28;7125;-56
2023/09/03 08:49:33;;;;;;;;;;;;;;;28.76;41.51;95155.97;4971213;28;7273;-56
2023/09/03 08:52:02;;;;;;;;;;;;;;;28.75;41.27;95150.97;4980176;28;8962;-56
2023/09/03 08:54:37;;;;;;;;;;;;;;;28.73;41.08;95154.22;5060212;28;7949;-56
2023/09/03 08:57:42;;;;;;;;;;;;;;;28.74;41.92;95155.75;5050918;28;7456;-56
2023/09/03 09:00:11;;;;;;;;;;;;;;;28.74;41.95;95155.75;5057333;28;7011;-56
2023/09/03 09:02:42;;;;;;;;;;;;;;;28.78;42.36;95158.22;5045383;28;7043;-56
2023/09/03 09:05:29;;;;;;;;;;;;;;;28.77;41.38;95160.25;5057028;28;7000;-56
2023/09/03 09:07:56;;;;;;;;;;;;;;;28.81;42.66;95166.28;5045984;28;7218;-56
2023/09/03 09:10:33;;;;;;;;;;;;;;;28.81;41.81;95159.97;5049250;28;8445;-56
2023/09/03 09:13:21;;;;;;;;;;;;;;;28.81;42.00;95157.97;5056993;28;7207;-56
2023/09/03 09:15:51;;;;;;;;;;;;;;;28.81;41.18;95149.66;5046003;28;8738;-61
2023/09/03 09:18:41;;;;;;;;;;;;;;;28.80;42.11;95153.69;5051954;28;9109;-61
2023/09/03 09:21:18;;;;;;;;;;;;;;;28.79;41.83;95157.72;5053680;28;7245;-61
2023/09/03 09:24:12;;;;;;;;;;;;;;;28.82;41.71;95153.91;5057472;28;6988;-61
2023/09/03 09:26:41;;;;;;;;;;;;;;;28.78;41.99;95156.22;5043833;28;9411;-61
2023/09/03 09:29:10;;;;;;;;;;;;;;;28.78;42.07;95149.91;5061760;28;7292;-61
2023/09/03 09:31:53;;;;;;;;;;;;;;;28.81;41.71;95143.34;5037476;28;7408;-61
2023/09/03 09:34:28;;;;;;;;;;;;;;;28.80;42.46;95131.53;5048350;28;9428;-61
2023/09/03 09:37:24;;;;;;;;;;;;;;;28.82;42.48;95134.53;5052340;28;7333;-61
2023/09/03 09:40:03;;;;;;;;;;;;;;;28.81;42.18;95135.81;4989826;28;8512;-62
2023/09/03 09:43:08;;;;;;;;;;;;;;;28.80;41.89;95131.53;5001441;28;7221;-61
2023/09/03 09:45:46;;;;;;;;;;;;;;;28.83;42.48;95132.53;4985120;28;7208;-61
2023/09/03 09:48:23;;;;;;;;;;;;;;;28.84;42.06;95136.81;5001998;28;7373;-60
2023/09/03 09:50:52;;;;;;;;;;;;;;;28.85;42.73;95141.81;5008934;28;8683;-61
2023/09/03 09:57:22;;;;;;;;;;;;;;;28.89;42.40;95149.84;4956553;28;7038;-61
2023/09/03 10:00:04;;;;;;;;;;;;;;;28.89;42.46;95144.31;4948693;28;7475;-61
2023/09/03 10:02:56;;;;;;;;;;;;;;;28.88;43.08;95151.13;4945618;28;7303;-61
2023/09/03 10:06:00;;;;;;;;;;;;;;;28.90;42.99;95154.88;4938574;28;7006;-61
2023/09/03 10:08:46;;;;;;;;;;;;;;;28.90;42.46;95156.88;4863342;29;7266;-61
2023/09/03 10:11:23;;;;;;;;;;;;;;;28.89;43.31;95152.59;4872951;29;9214;-61
2023/09/03 10:14:03;;;;;;;;;;;;;;;28.90;42.32;95156.88;4859410;29;8226;-61
2023/09/03 10:16:39;;;;;;;;;;;;;;;28.90;43.08;95149.34;4897727;29;9019;-61
2023/09/03 10:19:27;;;;;;;;;;;;;;;28.92;42.84;95154.34;4915103;29;9448;-61
2023/09/03 10:22:07;;;;;;;;;;;;;;;28.91;42.67;95152.84;4919404;29;9026;-61
2023/09/03 10:25:06;;;;;;;;;;;;;;;28.90;42.84;95154.88;4931549;29;8243;-61
2023/09/03 10:27:36;;;;;;;;;;;;;;;28.92;42.95;95157.13;4894358;29;8824;-61
2023/09/03 10:30:28;;;;;;;;;;;;;;;28.93;42.22;95147.53;4899344;29;7068;-60
2023/09/03 10:32:55;;;;;;;;;;;;;;;28.91;43.49;95155.59;4905080;29;7164;-61
2023/09/03 10:36:18;;;;;;;;;;;;;;;28.90;43.08;95154.88;4916411;29;7090;-61
2023/09/03 10:38:45;;;;;;;;;;;;;;;28.91;42.97;95152.84;4914848;29;8914;-61
2023/09/03 10:41:54;;;;;;;;;;;;;;;28.91;42.50;95150.06;4911716;29;7297;-60
2023/09/03 10:44:31;;;;;;;;;;;;;;;28.89;43.00;95144.31;4989034;28;7144;-61
2023/09/03 10:47:06;;;;;;;;;;;;;;;28.91;42.88;95148.06;5006887;28;7299;-61
2023/09/03 10:49:51;;;;;;;;;;;;;;;28.94;43.11;95146.28;4993967;28;8767;-61
2023/09/03 10:52:39;;;;;;;;;;;;;;;28.94;42.30;95146.28;4987296;28;9392;-61
2023/09/03 10:55:36;;;;;;;;;;;;;;;28.96;43.09;95149.28;5007391;28;9160;-60
2023/09/03 10:58:30;;;;;;;;;;;;;;;28.97;42.51;95145.25;5010584;28;7076;-60
2023/09/03 11:01:31;;;;;;;;;;;;;;;28.96;42.48;95150.03;4997097;28;7919;-60
2023/09/03 11:04:04;;;;;;;;;;;;;;;28.96;42.11;95147.28;5017739;28;7204;-61
2023/09/03 11:06:34;;;;;;;;;;;;;;;28.96;42.86;95141.72;5063042;28;7506;-61
2023/09/03 11:09:09;;;;;;;;;;;;;;;28.96;42.39;95136.19;5060659;28;7229;-61
2023/09/03 11:12:14;;;;;;;;;;;;;;;28.97;42.98;95140.44;5045287;28;6945;-60
2023/09/03 11:14:42;;;;;;;;;;;;;;;28.96;42.81;95135.44;4961406;28;8968;-61
2023/09/03 11:17:09;;;;;;;;;;;;;;;29.02;43.01;95144.44;4948648;28;8939;-61
2023/09/03 11:19:41;;;;;;;;;;;;;;;29.03;43.26;95141.19;4971088;28;7144;-61
2023/09/03 11:22:16;;;;;;;;;;;;;;;29.08;43.50;95140.38;4955861;28;7205;-61
2023/09/03 11:24:48;;;;;;;;;;;;;;;29.10;43.58;95143.38;4970070;28;8730;-61
2023/09/03 11:27:14;;;;;;;;;;;;;;;29.12;43.18;95136.56;4953990;28;7210;-60
2023/09/03 11:29:40;;;;;;;;;;;;;;;29.15;42.74;95135.53;4955199;28;8897;-61
2023/09/03 11:32:10;;;;;;;;;;;;;;;29.18;42.95;95137.31;4963669;28;7026;-61
2023/09/03 11:34:39;;;;;;;;;;;;;;;29.19;42.73;95142.31;4967602;28;7024;-63
2023/09/03 11:37:09;;;;;;;;;;;;;;;29.22;42.64;95146.06;4955535;28;7100;-62
2023/09/03 11:39:50;;;;;;;;;;;;;;;29.19;43.02;95138.81;4951934;28;9231;-64
2023/09/03 11:42:16;;;;;;;;;;;;;;;29.20;43.23;95140.31;4968325;28;9118;-64
2023/09/03 11:44:43;;;;;;;;;;;;;;;29.20;43.18;95151.38;4959985;28;7340;-62
2023/09/03 11:47:25;;;;;;;;;;;;;;;29.19;42.62;95153.41;4968255;28;7020;-63
2023/09/03 11:50:22;;;;;;;;;;;;;;;29.16;42.91;95151.69;5057130;28;6992;-62
2023/09/03 11:53:22;;;;;;;;;;;;;;;29.18;42.87;95151.16;4971707;28;12063;-63
2023/09/03 11:56:22;;;;;;;;;;;;;;;29.18;43.20;95160.22;4934933;29;8221;-64
2023/09/03 11:59:06;;;;;;;;;;;;;;;29.17;42.67;95157.97;4933865;29;7242;-63
2023/09/03 12:01:34;;;;;;;;;;;;;;;29.19;42.44;95160.97;4915226;29;7071;-63
2023/09/03 12:04:03;;;;;;;;;;;;;;;29.16;42.74;95151.69;4947374;28;7219;-63
2023/09/03 12:06:35;;;;;;;;;;;;;;;29.20;42.63;95152.16;4931648;29;9434;-63
2023/09/03 12:09:04;;;;;;;;;;;;;;;29.21;43.62;95144.59;4947020;28;7553;-62
2023/09/03 12:11:32;;;;;;;;;;;;;;;29.22;42.59;95146.06;4950389;28;7287;-63
2023/09/03 12:14:10;;;;;;;;;;;;;;;29.19;42.76;95144.34;4914428;29;8192;-63
2023/09/03 12:16:55;;;;;;;;;;;;;;;29.21;42.67;95141.81;4934445;29;7211;-64
2023/09/03 12:19:22;;;;;;;;;;;;;;;29.22;42.97;95146.06;4912601;29;7266;-63
2023/09/03 12:22:03;;;;;;;;;;;;;;;29.23;43.47;95142.06;4909164;29;7216;-64
2023/09/03 12:24:31;;;;;;;;;;;;;;;29.22;43.03;95138.53;4915905;29;7248;-64
2023/09/03 12:27:04;;;;;;;;;;;;;;;29.24;42.83;95143.53;4898640;29;8504;-63
2023/09/03 12:29:36;;;;;;;;;;;;;;;29.24;43.36;95132.47;4951163;28;7367;-64
2023/09/03 12:32:08;;;;;;;;;;;;;;;29.26;42.54;95139.00;5015556;28;7026;-64
2023/09/03 12:34:43;;;;;;;;;;;;;;;29.26;43.33;95138.22;5048015;28;7249;-64
2023/09/03 12:37:18;;;;;;;;;;;;;;;29.28;42.65;95138.47;5036348;28;7902;-64
2023/09/03 12:39:56;;;;;;;;;;;;;;;29.30;42.31;95144.22;5036139;28;7892;-64
2023/09/03 12:42:23;;;;;;;;;;;;;;;29.24;43.52;95135.22;5045680;28;7050;-63
2023/09/03 12:45:14;;;;;;;;;;;;;;;29.30;43.62;95144.22;5029695;28;8752;-62
2023/09/03 12:47:42;;;;;;;;;;;;;;;29.29;43.08;95142.75;5044900;28;7064;-63
2023/09/03 12:50:10;;;;;;;;;;;;;;;29.29;43.43;95129.66;5036293;28;8728;-63
2023/09/03 12:52:56;;;;;;;;;;;;;;;29.28;42.78;95138.47;5053614;28;6898;-63
2023/09/03 12:55:27;;;;;;;;;;;;;;;29.29;43.66;95126.13;5053379;28;7423;-63
2023/09/03 12:57:53;;;;;;;;;;;;;;;29.29;42.76;95121.34;5036318;28;7200;-63
2023/09/03 13:00:27;;;;;;;;;;;;;;;29.29;43.79;95115.78;5036042;28;7036;-63
2023/09/03 13:03:04;;;;;;;;;;;;;;;29.32;43.23;95123.06;5035867;28;7158;-63
2023/09/03 13:05:40;;;;;;;;;;;;;;;29.31;43.65;95121.56;5036095;28;7171;-63
2023/09/03 13:08:23;;;;;;;;;;;;;;;29.32;42.75;95119.56;5026815;28;7173;-63
2023/09/03 13:11:05;;;;;;;;;;;;;;;29.33;43.00;95110.72;5026303;28;9043;-63
2023/09/03 13:13:34;;;;;;;;;;;;;;;29.34;42.92;95112.19;5032902;28;8060;-63
2023/09/03 13:16:00;;;;;;;;;;;;;;;29.34;42.69;95109.44;5030813;28;7014;-63
2023/09/03 13:18:26;;;;;;;;;;;;;;;29.35;43.13;95115.72;5041501;28;6989;-63
2023/09/03 13:21:22;;;;;;;;;;;;;;;29.38;43.54;95109.91;5032712;28;6982;-63
2023/09/03 13:23:53;;;;;;;;;;;;;;;29.36;42.82;95106.88;5049110;28;9125;-63
2023/09/03 13:26:50;;;;;;;;;;;;;;;29.38;43.47;95109.91;5035636;28;7494;-63
2023/09/03 13:29:25;;;;;;;;;;;;;;;29.33;42.99;95110.72;4972295;28;8967;-63
2023/09/03 13:32:21;;;;;;;;;;;;;;;29.41;42.58;95111.63;4972017;28;7236;-63
2023/09/03 13:34:58;;;;;;;;;;;;;;;29.45;43.42;95111.38;4905769;29;7266;-63
2023/09/03 13:38:04;;;;;;;;;;;;;;;29.47;43.74;95112.31;4888377;29;7046;-63
2023/09/03 13:41:09;;;;;;;;;;;;;;;29.54;42.50;95108.97;4893211;29;7204;-63
2023/09/03 13:44:24;;;;;;;;;;;;;;;29.59;42.42;95110.94;4858355;29;8478;-63
2023/09/03 13:46:59;;;;;;;;;;;;;;;29.59;43.07;95116.50;4858490;29;7205;-63
2023/09/03 13:50:05;;;;;;;;;;;;;;;29.63;42.54;95116.19;4843487;29;9121;-63
2023/09/03 13:52:32;;;;;;;;;;;;;;;29.64;43.60;95118.47;4827488;29;6991;-63
2023/09/03 13:55:00;;;;;;;;;;;;;;;29.65;42.60;95119.19;4829445;29;7198;-63
2023/09/03 13:58:16;;;;;;;;;;;;;;;29.65;43.42;95108.09;4822176;29;9471;-63